Latest Weather Observations for Lombadina

IDW60801

Issued at 3:35 pm WST Thursday 23 October 2014 (issued every 30 minutes, with the page automatically refreshed every 10 minutes)

About weather observations | Map of weather stations | Latest weather observations for WA | Other Formats
Station Details ID: 503016 Name: LOMBADINA AIRSTRIP Lat: -16.52 Lon: 122.92 Height: 42.0 m
Data from the previous 72 hours. | See also: Recent months for locations in Western Australia
Date/Time
WST
Temp
°C
App
Temp
°C
Dew
Point
Rel
Hum
%
Delta-T
°C
Wind Press
QNH
hPa
Press
MSL
hPa
Rain
since 9 am
mm
Dir
 
Spd
km/h
Gust
km/h
Spd
kts
Gust
kts
23/03:30pm 29.6 32.1 23.1 68 4.5 NW 15 22 8 12 1010.7 1010.4 -
23/03:00pm 29.3 31.8 23.2 69 4.2 NW 15 26 8 14 1011.0 1010.7 -
23/02:30pm 30.1 32.1 23.0 65 4.9 NW 17 26 9 14 1011.2 1010.9 -
23/02:00pm 29.7 32.1 23.0 67 4.6 NW 15 26 8 14 1011.4 1011.1 -
23/01:30pm 29.5 31.6 23.1 68 4.4 NW 17 26 9 14 1011.7 1011.4 -
23/01:00pm 30.1 32.0 22.7 64 5.1 NW 17 28 9 15 1011.9 1011.6 -
23/12:30pm 29.9 31.9 22.9 66 4.8 NW 17 26 9 14 1012.3 1012.0 -
23/12:00pm 30.1 32.9 23.6 68 4.5 NW 15 24 8 13 1012.6 1012.3 -
23/11:00am 30.7 32.5 21.8 59 6.0 WNW 15 22 8 12 1013.1 1012.8 -
23/10:30am 30.0 32.3 22.8 65 4.9 NW 15 24 8 13 1013.2 1012.9 -
23/10:00am 30.3 33.0 22.8 64 5.1 NW 13 22 7 12 1013.3 1013.0 -
23/09:00am 29.4 31.9 22.5 66 4.7 NW 13 20 7 11 1013.6 1013.3 0.0
23/08:30am 28.9 31.6 22.8 69 4.2 NNW 13 20 7 11 1013.7 1013.4 0.0
23/08:00am 28.4 30.9 22.5 70 4.0 NNW 13 22 7 12 1013.8 1013.5 0.0
23/07:30am 28.2 31.3 23.6 76 3.2 NNW 13 20 7 11 1013.5 1013.2 0.0
23/07:00am 27.7 31.1 23.3 77 3.0 WNW 11 20 6 11 1012.8 1012.5 0.0
23/06:30am 27.1 31.3 23.4 80 2.5 WNW 7 13 4 7 1012.6 1012.3 0.0
23/06:00am 26.4 30.8 23.4 83 2.1 W 6 13 3 7 1012.2 1011.9 0.0
23/05:30am 25.9 30.3 23.5 86 1.6 NW 6 9 3 5 1011.8 1011.5 0.0
23/05:00am 25.9 30.1 23.2 85 1.8 W 6 11 3 6 1011.6 1011.3 0.0
23/04:30am 26.0 30.3 23.3 85 1.8 WNW 6 15 3 8 1011.5 1011.2 0.0
23/04:00am 26.1 30.3 23.5 85 1.8 NW 7 15 4 8 1011.3 1011.0 0.0
23/03:30am 26.3 29.6 23.2 83 2.1 NW 11 19 6 10 1011.1 1010.8 0.0
23/03:00am 26.3 29.8 23.5 84 1.9 NW 11 19 6 10 1011.1 1010.8 0.0
23/02:30am 26.4 29.8 23.4 83 2.1 NW 11 19 6 10 1011.2 1010.9 0.0
23/02:00am 26.3 29.3 23.4 84 2.0 NNW 13 19 7 10 1011.2 1010.9 0.0
23/01:30am 26.3 29.4 23.5 84 1.9 NW 13 22 7 12 1011.2 1010.9 0.0
23/01:00am 26.4 29.5 23.6 84 1.9 NW 13 22 7 12 1011.6 1011.3 0.0
23/12:30am 26.4 29.6 23.7 85 1.9 NW 13 19 7 10 1011.9 1011.6 0.0
23/12:00am 26.5 30.0 23.6 84 2.0 NW 11 20 6 11 1012.3 1012.0 0.0
 
Date/Time
WST
Temp
°C
App
Temp
°C
Dew
Point
Rel
Hum
%
Delta-T
°C
Wind Press
QNH
hPa
Press
MSL
hPa
Rain
since 9 am
mm
Dir
 
Spd
km/h
Gust
km/h
Spd
kts
Gust
kts
22/11:30pm 26.6 29.8 23.7 84 2.0 NW 13 20 7 11 1012.6 1012.3 0.0
22/11:00pm 26.6 30.2 23.7 84 2.0 NW 11 17 6 9 1012.6 1012.3 0.0
22/10:30pm 26.7 30.5 24.0 85 1.9 NW 11 17 6 9 1013.0 1012.7 0.0
22/10:00pm 26.7 30.3 23.7 83 2.1 NW 11 17 6 9 1013.1 1012.8 0.0
22/09:30pm 26.7 30.3 23.8 84 2.0 NW 11 20 6 11 1013.1 1012.8 0.0
22/09:00pm 26.7 30.1 23.4 82 2.3 NW 11 19 6 10 1013.0 1012.7 0.0
22/08:30pm 26.9 30.4 23.6 82 2.3 WNW 11 20 6 11 1013.1 1012.8 0.0
22/08:00pm 26.8 31.0 23.4 81 2.3 WNW 7 15 4 8 1012.9 1012.6 0.0
22/07:30pm 26.9 30.6 23.2 80 2.5 NW 9 15 5 8 1012.6 1012.3 0.0
22/07:00pm 27.0 30.8 23.5 81 2.4 WNW 9 20 5 11 1012.4 1012.1 0.0
22/06:30pm 27.1 30.6 23.5 81 2.5 WNW 11 19 6 10 1011.9 1011.6 0.0
22/06:00pm 27.2 30.2 23.4 80 2.6 NW 13 20 7 11 1011.7 1011.4 0.0
22/05:30pm 27.4 30.4 23.4 79 2.7 NW 13 22 7 12 1011.6 1011.3 0.0
22/05:00pm 27.7 29.9 23.3 77 3.0 NW 17 22 9 12 1011.2 1010.9 0.0
22/04:30pm 28.1 29.9 23.2 74 3.4 NW 19 28 10 15 1011.0 1010.7 0.0
22/04:00pm 28.7 31.1 22.9 71 4.0 NW 15 22 8 12 1011.1 1010.8 0.0
22/03:30pm 29.4 31.9 22.5 66 4.7 NW 13 20 7 11 1011.0 1010.7 0.0
22/03:00pm 29.0 31.3 23.4 72 3.9 NW 17 32 9 17 1011.0 1010.7 0.0
22/02:30pm 29.5 31.3 22.5 66 4.8 WNW 17 28 9 15 1011.1 1010.8 0.0
22/02:00pm 30.0 32.0 22.3 63 5.2 NW 15 26 8 14 1011.2 1010.9 0.0
22/01:30pm 29.6 31.9 22.7 66 4.7 NW 15 24 8 13 1011.6 1011.3 0.0
22/01:00pm 30.3 32.3 22.2 62 5.5 NW 15 24 8 13 1011.9 1011.6 0.0
22/12:30pm 30.3 32.2 22.0 61 5.6 NNW 15 26 8 14 1012.2 1011.9 0.0
22/12:00pm 29.6 31.8 24.0 72 3.9 NNW 19 32 10 17 1012.4 1012.1 0.0
22/11:30am 29.2 30.6 22.5 67 4.6 NW 19 30 10 16 1012.7 1012.4 0.0
22/11:00am 29.9 32.0 22.5 64 5.0 NW 15 24 8 13 1013.4 1013.1 0.0
22/10:30am 29.8 32.7 23.9 70 4.1 NNW 15 26 8 14 1013.5 1013.2 0.0
22/10:00am 29.9 31.7 22.5 64 5.0 NNW 17 28 9 15 1013.6 1013.3 0.0
22/09:30am 29.6 31.1 22.0 63 5.1 NNW 17 26 9 14 1013.9 1013.6 0.0
22/09:00am 29.2 31.2 23.0 69 4.2 NW 17 24 9 13 1013.9 1013.6 0.0
22/08:30am 28.4 31.0 22.6 71 3.9 NNW 13 22 7 12 1013.9 1013.6 0.0
22/08:00am 28.3 31.0 23.5 75 3.3 NNW 15 20 8 11 1013.7 1013.4 0.0
22/07:30am 27.4 30.5 23.5 79 2.7 NW 13 17 7 9 1013.6 1013.3 0.0
22/07:00am 27.6 31.0 24.0 81 2.5 NNW 13 20 7 11 1013.6 1013.3 0.0
22/06:30am 26.7 30.1 24.0 85 1.9 NW 13 20 7 11 1012.5 1012.2 0.0
22/06:00am 26.2 29.1 23.9 87 1.6 NW 15 22 8 12 1012.3 1012.0 0.0
22/05:30am 25.7 28.7 24.0 90 1.2 NW 15 22 8 12 1012.0 1011.7 0.0
22/05:00am 25.5 29.3 24.0 91 1.0 NW 11 20 6 11 1011.8 1011.5 0.0
22/04:30am 24.7 29.0 23.6 94 0.8 NNW 7 11 4 6 1012.0 1011.7 0.0
22/04:00am 24.7 29.1 23.5 93 0.8 N 6 7 3 4 1012.1 1011.8 0.0
22/03:30am 24.8 29.3 23.7 94 0.8 N 6 7 3 4 1012.1 1011.8 0.0
22/03:00am 24.9 29.4 23.7 93 0.8 NE 6 7 3 4 1012.0 1011.7 0.0
22/02:53am 25.0 29.6 23.8 93 0.8 NNE 6 7 3 4 1012.0 1011.7 0.0
22/02:30am 25.5 30.2 24.0 91 1.0 NNW 6 9 3 5 1011.8 1011.5 0.0
22/02:00am 25.7 30.6 24.4 92 0.9 NNW 6 13 3 7 1011.5 1011.2 0.0
22/01:30am 25.5 30.7 24.2 92 0.9 NW 4 7 2 4 1011.4 1011.1 0.0
22/01:04am 25.2 30.2 23.9 92 0.9 W 4 9 2 5 1011.6 1011.3 0.0
22/01:00am 25.2 29.9 24.0 93 0.8 W 6 9 3 5 1011.6 1011.3 0.0
22/12:30am 25.4 30.1 24.0 92 1.0 WNW 6 9 3 5 1011.8 1011.5 0.0
22/12:00am 25.4 30.1 24.0 92 1.0 WNW 6 11 3 6 1012.3 1012.0 0.0
 
Date/Time
WST
Temp
°C
App
Temp
°C
Dew
Point
Rel
Hum
%
Delta-T
°C
Wind Press
QNH
hPa
Press
MSL
hPa
Rain
since 9 am
mm
Dir
 
Spd
km/h
Gust
km/h
Spd
kts
Gust
kts
21/11:30pm 25.3 29.9 23.8 91 1.0 W 6 9 3 5 1012.7 1012.4 0.0
21/11:00pm 25.9 30.9 23.9 89 1.4 WNW 4 7 2 4 1012.9 1012.6 0.0
21/10:30pm 26.1 30.6 23.9 88 1.5 W 7 13 4 7 1012.9 1012.6 0.0
21/10:00pm 26.2 30.5 23.6 85 1.8 W 7 15 4 8 1013.3 1013.0 0.0
21/09:30pm 26.3 30.1 23.4 84 2.0 W 9 17 5 9 1013.6 1013.3 0.0
21/09:00pm 26.5 30.3 23.4 83 2.1 W 9 15 5 8 1013.3 1013.0 0.0
21/08:30pm 26.5 30.0 22.9 80 2.4 W 9 17 5 9 1013.1 1012.8 0.0
21/08:00pm 26.7 29.4 22.9 79 2.6 W 13 22 7 12 1012.8 1012.5 0.0
21/07:30pm 26.8 29.4 22.7 78 2.8 W 13 24 7 13 1012.8 1012.5 0.0
21/07:00pm 26.9 29.8 22.5 77 3.0 W 11 24 6 13 1012.5 1012.2 0.0
21/06:30pm 27.0 29.6 22.6 77 3.0 WNW 13 20 7 11 1012.1 1011.8 0.0
21/06:00pm 27.2 29.8 22.6 76 3.1 W 13 24 7 13 1011.8 1011.5 0.0
21/05:30pm 27.6 29.7 22.4 73 3.5 W 15 24 8 13 1011.5 1011.2 0.0
21/05:00pm 28.2 30.6 22.2 70 4.1 W 13 22 7 12 1011.2 1010.9 0.0
21/04:30pm 28.8 30.4 21.5 64 4.9 W 15 26 8 14 1011.0 1010.7 0.0
21/04:00pm 29.8 31.8 21.6 61 5.5 W 13 26 7 14 1011.0 1010.7 0.0
21/03:30pm 29.6 31.2 21.5 61 5.4 WNW 15 26 8 14 1011.0 1010.7 0.0
21/03:00pm 30.7 32.6 20.6 54 6.7 W 11 22 6 12 1011.2 1010.9 0.0
21/02:30pm 30.7 32.1 21.1 56 6.4 WNW 15 22 8 12 1011.3 1011.0 0.0
21/02:00pm 31.1 32.9 21.2 55 6.7 W 13 24 7 13 1011.7 1011.4 0.0
21/01:30pm 31.2 32.7 20.6 53 7.1 WNW 13 26 7 14 1012.1 1011.8 0.0
21/01:00pm 31.9 33.1 20.7 51 7.5 WNW 15 24 8 13 1012.4 1012.1 0.0
21/12:30pm 31.4 31.9 18.3 45 8.5 W 13 22 7 12 1012.9 1012.6 0.0
21/12:00pm 31.6 31.2 17.2 42 9.2 WNW 15 22 8 12 1013.5 1013.2 0.0
21/11:30am 31.6 31.2 17.2 42 9.2 WNW 15 24 8 13 1014.0 1013.7 0.0
21/11:00am 31.2 31.2 18.0 45 8.5 NW 15 20 8 11 1014.4 1014.1 0.0
21/10:30am 32.0 32.1 16.5 39 9.8 WNW 11 20 6 11 1014.8 1014.5 0.0
21/10:00am 31.3 31.7 17.2 42 9.0 WNW 11 19 6 10 1014.9 1014.6 0.0
21/09:30am 30.9 31.5 17.8 45 8.4 NW 11 19 6 10 1015.1 1014.8 0.0
21/09:00am 31.2 31.7 16.6 41 9.2 WNW 9 17 5 9 1015.1 1014.8 0.0
21/08:30am 31.1 31.6 15.1 38 9.9 SW 6 11 3 6 1015.3 1015.0 0.0
21/08:00am 30.6 30.9 13.4 35 10.3 W 4 11 2 6 1015.5 1015.2 0.0
21/07:30am 29.8 31.8 17.0 46 8.1 N 2 4 1 2 1015.4 1015.1 0.0
21/07:00am 27.0 29.1 18.0 58 5.7 S 4 7 2 4 1015.5 1015.2 0.0
21/06:30am 25.4 27.2 18.4 65 4.4 SSW 6 7 3 4 1015.1 1014.8 0.0
21/06:00am 22.2 24.6 18.9 81 2.1 S 4 6 2 3 1014.8 1014.5 0.0
21/05:30am 20.7 23.0 17.8 83 1.8 SSW 2 6 1 3 1014.3 1014.0 0.0
21/05:00am 21.6 23.9 17.7 78 2.4 W 2 4 1 2 1013.8 1013.5 0.0
21/04:30am 23.1 25.2 18.0 73 3.2 E 4 9 2 5 1013.3 1013.0 0.0
21/04:00am 24.5 26.2 18.0 67 4.1 N 6 9 3 5 1013.0 1012.7 0.0
21/03:30am 25.0 26.5 18.9 69 3.9 ENE 9 19 5 10 1012.4 1012.1 0.0
21/03:00am 24.3 26.6 20.6 80 2.4 SW 9 17 5 9 1011.4 1011.1 0.0
21/02:30am 24.5 26.4 20.5 78 2.6 SW 11 20 6 11 1010.9 1010.6 0.0
21/02:00am 24.7 27.1 20.8 79 2.6 WSW 9 19 5 10 1010.9 1010.6 0.0
21/01:30am 24.8 27.3 21.0 79 2.5 WSW 9 17 5 9 1011.1 1010.8 0.0
21/01:00am 25.1 27.3 21.2 79 2.6 WSW 11 20 6 11 1011.3 1011.0 0.0
21/12:30am 25.1 27.8 21.4 80 2.5 WSW 9 17 5 9 1011.7 1011.4 0.0
21/12:00am 25.2 27.7 21.7 81 2.3 WSW 11 20 6 11 1011.9 1011.6 0.0
 
Date/Time
WST
Temp
°C
App
Temp
°C
Dew
Point
Rel
Hum
%
Delta-T
°C
Wind Press
QNH
hPa
Press
MSL
hPa
Rain
since 9 am
mm
Dir
 
Spd
km/h
Gust
km/h
Spd
kts
Gust
kts
20/11:30pm 25.4 28.1 22.1 82 2.2 WSW 11 22 6 12 1012.2 1011.9 0.0
20/11:00pm 25.4 28.1 22.2 82 2.1 WSW 11 20 6 11 1012.6 1012.3 0.0
20/10:30pm 25.6 28.1 22.5 83 2.1 SW 13 22 7 12 1013.0 1012.7 0.0
20/10:00pm 25.8 28.4 22.6 82 2.2 SW 13 22 7 12 1013.3 1013.0 0.0
20/09:30pm 26.1 29.0 22.4 80 2.5 WSW 11 20 6 11 1013.4 1013.1 0.0
20/09:00pm 26.2 29.5 22.5 80 2.5 WSW 9 19 5 10 1013.5 1013.2 0.0
20/08:30pm 26.4 29.5 22.2 78 2.8 W 9 17 5 9 1013.3 1013.0 0.0
20/08:00pm 26.5 29.5 21.9 76 3.1 WSW 9 19 5 10 1013.3 1013.0 0.0
20/07:30pm 26.7 29.5 21.6 73 3.4 WSW 9 19 5 10 1013.1 1012.8 0.0
20/07:00pm 26.9 29.7 21.6 72 3.5 WSW 9 20 5 11 1012.9 1012.6 0.0
20/06:30pm 27.2 30.0 21.6 71 3.7 W 9 19 5 10 1012.6 1012.3 0.0
20/06:00pm 27.7 30.3 21.2 67 4.3 WSW 9 19 5 10 1012.4 1012.1 0.0
20/05:30pm 28.6 30.3 20.2 60 5.5 WSW 11 22 6 12 1012.0 1011.7 0.0
20/05:00pm 29.2 31.9 21.3 62 5.3 W 9 19 5 10 1011.9 1011.6 0.0
20/04:30pm 29.5 31.8 21.3 61 5.5 W 11 24 6 13 1011.6 1011.3 0.0
20/04:00pm 29.6 31.3 21.7 62 5.3 W 15 28 8 15 1011.6 1011.3 0.0

Other Formats:

Comma delimited format used in spreadsheet applications
http://www.bom.gov.au/fwo/IDW60801/IDW60801.99206.axf

JavaScript Object Notation format (JSON) in row-major order
http://www.bom.gov.au/fwo/IDW60801/IDW60801.99206.json